LFPGLFOH

Guest
Details From LFPG - Paris Charles De Gaulle
To LFOH - Le Havre-Octeville
Flight Number -
Tags generated
Created
Modified
Stats Distance 102 nm / 189 km
Max Altitude 12,700 ft / 3,871 m
Waypoints 3
Social Downloads 2
Likes 0
Share VATSIM

Download

Looking for another format? Having issues loading an existing format? Contact us
Advertisement - Login to hide

Notes

Basic altitude profile: - Ascent Rate: 2500ft/min - Ascent Speed: 250kts - Cruise Altitude: 35000ft - Cruise Speed: 420kts - Descent Rate: 1500ft/min - Descent Speed: 250kts Options: - Use NATs: yes - Use PACOTS: yes - Use low airways: yes - Use high airways: yes

Route

LFPG PODEM LFOH

ID Type Via Altitude Latitude Longitude Leg Dist Tot Dist Heading (true) Name
O LFPG APT - 0 ft / 0 m 49.00974˚ 2.56262˚ - 0 nm - Paris Charles De Gaulle
PODEM FIX - 12,700 ft / 3,871 m 49.26139˚ 1.55306˚ 42 nm 42 nm 291° / 290° -
O LFOH APT - 0 ft / 0 m 49.53408˚ 0.08846˚ 59 nm 101 nm 287° / 285° Le Havre-Octeville

Altitude Profile

Advertisement - Login to hide

LFPG

Details ICAO LFPG (CDG)
Name Paris Charles De Gaulle
Region France
Timezone Europe/Paris (UTC+2.0)
Stats Elevation 392 ft / 119 m (AMSL)
Location 49.009742° 2.562619°
Runways 4
Magnetic Variation 0.699° E

METAR

LFPG 221400Z VRB02KT 9999 FEW050CB FEW053TCU BKN190 23/12 Q1013 TEMPO VRB15G30KT 2000 TSRA

Decode

TAF

TAF LFPG 221100Z 2212/2318 32005KT 9999 FEW045 TEMPO 2212/2220 4000 SHRA SCT030CB PROB40 TEMPO 2214/2216 VRB15G30KT 2000 TSRAGR PROB30 TEMPO 2303/2306 4000 BR BKN008 TEMPO 2311/2318 4000 SHRA SCT030CB PROB40 TEMPO 2313/2316 VRB10G25KT 2000 TSRAGR TX24/2213Z TN12/2303Z

Decode

Departure Runways

ID Width Length Bearing (true) Bearing (mag) Surface Threshold Offset Overrun Length
08L 148 ft / 45 m 14,039 ft / 4,279 m 85.37° 84.67° Asphalt 0 ft / 0 m 0 ft / 0 m
08R 197 ft / 60 m 8,797 ft / 2,681 m 85.39° 84.69° Asphalt 0 ft / 0 m 0 ft / 0 m
09L 197 ft / 60 m 8,835 ft / 2,693 m 85.39° 84.69° Asphalt 0 ft / 0 m 0 ft / 0 m
09R 148 ft / 45 m 13,744 ft / 4,189 m 85.38° 84.68° Asphalt 0 ft / 0 m 0 ft / 0 m
26L 197 ft / 60 m 8,797 ft / 2,681 m 265.41° 264.71° Asphalt 0 ft / 0 m 0 ft / 0 m
26R 148 ft / 45 m 14,039 ft / 4,279 m 265.41° 264.71° Asphalt 1,893 ft / 577 m 0 ft / 0 m
27L 148 ft / 45 m 13,744 ft / 4,189 m 265.42° 264.72° Asphalt 1,969 ft / 600 m 0 ft / 0 m
27R 197 ft / 60 m 8,835 ft / 2,693 m 265.41° 264.71° Asphalt 0 ft / 0 m 0 ft / 0 m

LFOH

Details ICAO LFOH (LEH)
Name Le Havre-Octeville
Region France
Timezone Europe/Paris (UTC+2.0)
Stats Elevation 311 ft / 95 m (AMSL)
Location 49.534079° 0.088457°
Runways 1
Magnetic Variation 0.118° W

METAR

LFOH 221400Z AUTO 34012KT 310V020 8000 NSC 15/12 Q1015 NOSIG

Decode

TAF

TAF LFOH 221100Z 2212/2312 32010KT 6000 NSC TEMPO 2303/2309 BKN006= TAF LFOP 221100Z 2212/2312 30005KT CAVOK TEMPO 2212/2217 3000 SHRA BKN050CB PROB30 TEMPO 2212/2217 TSRAGR TEMPO 2301/2307 OVC003 TEMPO 2309/2312 3000 SHRA BKN030CB

Decode

Destination Runways

ID Width Length Bearing (true) Bearing (mag) Surface Threshold Offset Overrun Length
04 131 ft / 40 m 7,553 ft / 2,302 m 43.07° 43.19° Asphalt 0 ft / 0 m 0 ft / 0 m
22 131 ft / 40 m 7,553 ft / 2,302 m 223.08° 223.20° Asphalt 0 ft / 0 m 0 ft / 0 m

Approach Navaids

Runway Type Ident Frequency Range Bearing (true) Bearing (mag) Slope Elevation
22 Localiser OT 109.50 MHz 18 nm / 33 km 223.06° 223.18° - 322 ft / 98 m (AMSL)
22 Glidescope OT 109.50 MHz 10 nm / 19 km 223.07° 223.19° 3.00° 313 ft / 95 m (AMSL)
22 DME OT 109.50 MHz 18 nm / 33 km - - - 354 ft / 108 m (AMSL)

Popular Alternatives